KLM085 SAEZ-SCEL
Flight info
| Callsign | KLM085 |
|---|---|
| Flight time | 1h 40m |
| Altitude | 32000 |
| Route | URINO1A URINO UL405 TOSOR UT687 UMKAL UMKAL7C |
| Aircraft | B77W/H-SDE1E2E3FGHIJ2J3J4J5M1RWXYZ/LB1D1 |
Departure
| Time | 2026-05-01 09:25 |
|---|---|
| Airport | Ezeiza International Airport - Ministro Pistarini (SAEZ) |
Arrival
| Time | 2026-05-01 11:05 |
|---|---|
| Airport | Comodoro Arturo Merino Benítez International Airport (SCEL) |
| Time | Latitude | Longitude | Altitude | Speed | Heading |
|---|---|---|---|---|---|
| 2026-05-01 08:50 | -34.81559 | -58.53923 | 80 ft | 0 kts | 322° |
| 2026-05-01 09:15 | -34.81572 | -58.53910 | 80 ft | 4 kts | 322° |
| 2026-05-01 09:15 | -34.81594 | -58.53890 | 85 ft | 4 kts | 322° |
| 2026-05-01 09:16 | -34.81615 | -58.53871 | 80 ft | 4 kts | 327° |
| 2026-05-01 09:16 | -34.81638 | -58.53855 | 85 ft | 4 kts | 336° |
| 2026-05-01 09:16 | -34.81664 | -58.53844 | 85 ft | 4 kts | 349° |
| 2026-05-01 09:17 | -34.81700 | -58.53850 | 80 ft | 0 kts | 47° |
| 2026-05-01 09:19 | -34.81699 | -58.53849 | 80 ft | 1 kts | 47° |
| 2026-05-01 09:19 | -34.81690 | -58.53837 | 85 ft | 4 kts | 47° |
| 2026-05-01 09:20 | -34.81671 | -58.53870 | 80 ft | 5 kts | 215° |
| 2026-05-01 09:20 | -34.81770 | -58.53994 | 85 ft | 15 kts | 243° |
| 2026-05-01 09:21 | -34.81779 | -58.54238 | 85 ft | 15 kts | 278° |
| 2026-05-01 09:21 | -34.81764 | -58.54361 | 85 ft | 15 kts | 278° |
| 2026-05-01 09:21 | -34.81766 | -58.54606 | 85 ft | 15 kts | 255° |
| 2026-05-01 09:22 | -34.81762 | -58.54851 | 85 ft | 15 kts | 282° |
| 2026-05-01 09:22 | -34.81719 | -58.55094 | 85 ft | 15 kts | 282° |
| 2026-05-01 09:23 | -34.81697 | -58.55215 | 84 ft | 15 kts | 279° |
| 2026-05-01 09:23 | -34.81769 | -58.55341 | 81 ft | 10 kts | 189° |
| 2026-05-01 09:24 | -34.81891 | -58.55290 | 84 ft | 7 kts | 172° |
| 2026-05-01 09:24 | -34.81910 | -58.55270 | 84 ft | 4 kts | 119° |
| 2026-05-01 09:24 | -34.81933 | -58.55170 | 84 ft | 26 kts | 102° |
| 2026-05-01 09:25 | -34.82243 | -58.53396 | 114 ft | 174 kts | 100° |
| 2026-05-01 09:25 | -34.82738 | -58.50493 | 1568 ft | 179 kts | 105° |
| 2026-05-01 09:26 | -34.83289 | -58.49096 | 2275 ft | 187 kts | 122° |
| 2026-05-01 09:26 | -34.84826 | -58.46459 | 3453 ft | 208 kts | 142° |
| 2026-05-01 09:26 | -34.86158 | -58.45698 | 4041 ft | 214 kts | 158° |
| 2026-05-01 09:27 | -34.87987 | -58.43032 | 5189 ft | 211 kts | 107° |
| 2026-05-01 09:27 | -34.88560 | -58.41336 | 5727 ft | 219 kts | 109° |
| 2026-05-01 09:27 | -34.89210 | -58.39690 | 6449 ft | 216 kts | 113° |
| 2026-05-01 09:28 | -34.89946 | -58.38043 | 6904 ft | 226 kts | 123° |
| 2026-05-01 09:28 | -34.91215 | -58.36904 | 7255 ft | 234 kts | 167° |
| 2026-05-01 09:28 | -34.92739 | -58.36956 | 7848 ft | 210 kts | 212° |
| 2026-05-01 09:28 | -34.93761 | -58.38083 | 8340 ft | 195 kts | 248° |
| 2026-05-01 09:29 | -34.95354 | -58.40832 | 9128 ft | 210 kts | 234° |
| 2026-05-01 09:29 | -34.96314 | -58.42231 | 9441 ft | 223 kts | 241° |
| 2026-05-01 09:30 | -34.97869 | -58.45905 | 9799 ft | 268 kts | 253° |
| 2026-05-01 09:30 | -34.98496 | -58.48124 | 10203 ft | 285 kts | 257° |
| 2026-05-01 09:30 | -34.99416 | -58.53253 | 10617 ft | 335 kts | 266° |
| 2026-05-01 09:31 | -34.99687 | -58.56176 | 11068 ft | 353 kts | 268° |
| 2026-05-01 09:31 | -34.99786 | -58.59207 | 11829 ft | 361 kts | 273° |
| 2026-05-01 09:31 | -34.99818 | -58.65377 | 13832 ft | 369 kts | 272° |
| 2026-05-01 09:32 | -34.99900 | -58.68516 | 14900 ft | 372 kts | 271° |
| 2026-05-01 09:32 | -35.00175 | -58.74885 | 16895 ft | 379 kts | 270° |
| 2026-05-01 09:32 | -35.00332 | -58.78106 | 17847 ft | 382 kts | 270° |
| 2026-05-01 09:33 | -35.00489 | -58.81362 | 18744 ft | 385 kts | 270° |
| 2026-05-01 09:33 | -35.00643 | -58.84635 | 19618 ft | 389 kts | 271° |
| 2026-05-01 09:33 | -35.00842 | -58.91295 | 21248 ft | 396 kts | 272° |
| 2026-05-01 09:34 | -35.00925 | -58.94660 | 22024 ft | 399 kts | 272° |
| 2026-05-01 09:34 | -35.01009 | -58.98064 | 22786 ft | 403 kts | 272° |
| 2026-05-01 09:34 | -35.01186 | -59.04907 | 24214 ft | 409 kts | 271° |
| 2026-05-01 09:35 | -35.01279 | -59.08395 | 24894 ft | 412 kts | 272° |
| 2026-05-01 09:35 | -35.01465 | -59.15449 | 26183 ft | 419 kts | 271° |
| 2026-05-01 09:35 | -35.01557 | -59.19008 | 26785 ft | 422 kts | 271° |
| 2026-05-01 09:36 | -35.01647 | -59.22603 | 27337 ft | 424 kts | 272° |
| 2026-05-01 09:36 | -35.01354 | -59.26159 | 27688 ft | 424 kts | 287° |
| 2026-05-01 09:36 | -35.00252 | -59.29487 | 28144 ft | 426 kts | 298° |
| 2026-05-01 09:36 | -34.98627 | -59.32518 | 28726 ft | 427 kts | 309° |
| 2026-05-01 09:37 | -34.96512 | -59.35052 | 29363 ft | 426 kts | 316° |
| 2026-05-01 09:37 | -34.92090 | -59.39796 | 30833 ft | 419 kts | 316° |
| 2026-05-01 09:37 | -34.89942 | -59.42116 | 31511 ft | 416 kts | 316° |
| 2026-05-01 09:38 | -34.85591 | -59.46888 | 31924 ft | 428 kts | 315° |
| 2026-05-01 09:38 | -34.83357 | -59.49359 | 31936 ft | 435 kts | 315° |
| 2026-05-01 09:39 | -34.76492 | -59.56948 | 31923 ft | 451 kts | 315° |
| 2026-05-01 09:39 | -34.72022 | -59.62169 | 31909 ft | 444 kts | 306° |
| 2026-05-01 09:40 | -34.68841 | -59.72636 | 31929 ft | 448 kts | 280° |
| 2026-05-01 09:41 | -34.68030 | -59.80173 | 31921 ft | 451 kts | 280° |
| 2026-05-01 09:41 | -34.66746 | -59.91468 | 31912 ft | 453 kts | 281° |
| 2026-05-01 09:42 | -34.65842 | -59.99041 | 31912 ft | 453 kts | 281° |
| 2026-05-01 09:43 | -34.64004 | -60.14199 | 31907 ft | 453 kts | 281° |
| 2026-05-01 09:43 | -34.63080 | -60.21771 | 31908 ft | 453 kts | 281° |
| 2026-05-01 09:44 | -34.61689 | -60.33102 | 31902 ft | 453 kts | 281° |
| 2026-05-01 09:45 | -34.60749 | -60.40687 | 31897 ft | 453 kts | 281° |
| 2026-05-01 09:45 | -34.59340 | -60.52020 | 31899 ft | 453 kts | 281° |
| 2026-05-01 09:46 | -34.58395 | -60.59567 | 31899 ft | 453 kts | 281° |
| 2026-05-01 09:46 | -34.57442 | -60.67128 | 31894 ft | 453 kts | 281° |
| 2026-05-01 09:47 | -34.56492 | -60.74652 | 31888 ft | 453 kts | 281° |
| 2026-05-01 09:47 | -34.55528 | -60.82229 | 31887 ft | 454 kts | 281° |
| 2026-05-01 09:48 | -34.54563 | -60.89796 | 31873 ft | 454 kts | 281° |
| 2026-05-01 09:48 | -34.53552 | -60.97302 | 31869 ft | 454 kts | 282° |
| 2026-05-01 09:49 | -34.52376 | -61.04821 | 31869 ft | 454 kts | 283° |
| 2026-05-01 09:49 | -34.51185 | -61.12337 | 31873 ft | 454 kts | 283° |
| 2026-05-01 09:50 | -34.50005 | -61.19878 | 31868 ft | 454 kts | 282° |
| 2026-05-01 09:50 | -34.49029 | -61.26139 | 31859 ft | 455 kts | 282° |
| 2026-05-01 09:51 | -34.47850 | -61.33688 | 31859 ft | 455 kts | 282° |
| 2026-05-01 09:51 | -34.46473 | -61.42448 | 31857 ft | 455 kts | 282° |
| 2026-05-01 09:52 | -34.45484 | -61.48716 | 31862 ft | 456 kts | 282° |
| 2026-05-01 09:52 | -34.44288 | -61.56259 | 31856 ft | 456 kts | 282° |
| 2026-05-01 09:53 | -34.43065 | -61.63864 | 31858 ft | 457 kts | 283° |
| 2026-05-01 09:53 | -34.41848 | -61.71377 | 31845 ft | 458 kts | 283° |
| 2026-05-01 09:54 | -34.40619 | -61.78938 | 31855 ft | 458 kts | 283° |
| 2026-05-01 09:54 | -34.39387 | -61.86505 | 31849 ft | 458 kts | 283° |
| 2026-05-01 09:55 | -34.38151 | -61.94073 | 31855 ft | 458 kts | 283° |
| 2026-05-01 09:55 | -34.36908 | -62.01643 | 31848 ft | 458 kts | 283° |
| 2026-05-01 09:56 | -34.35663 | -62.09210 | 31848 ft | 458 kts | 283° |
| 2026-05-01 09:56 | -34.34417 | -62.16747 | 31842 ft | 458 kts | 283° |
| 2026-05-01 09:57 | -34.33167 | -62.24299 | 31838 ft | 458 kts | 283° |
| 2026-05-01 09:57 | -34.31910 | -62.31870 | 31835 ft | 458 kts | 283° |
| 2026-05-01 09:58 | -34.30652 | -62.39421 | 31836 ft | 457 kts | 283° |
| 2026-05-01 09:58 | -34.29392 | -62.46958 | 31847 ft | 457 kts | 283° |
| 2026-05-01 09:59 | -34.28132 | -62.54463 | 31851 ft | 457 kts | 283° |
| 2026-05-01 09:59 | -34.26860 | -62.62005 | 31836 ft | 457 kts | 283° |
| 2026-05-01 10:00 | -34.25583 | -62.69548 | 31832 ft | 457 kts | 283° |
| 2026-05-01 10:00 | -34.24303 | -62.77076 | 31835 ft | 457 kts | 283° |
| 2026-05-01 10:01 | -34.23018 | -62.84606 | 31831 ft | 457 kts | 283° |
| 2026-05-01 10:01 | -34.21729 | -62.92132 | 31834 ft | 457 kts | 283° |
| 2026-05-01 10:02 | -34.20437 | -62.99647 | 31834 ft | 457 kts | 283° |
| 2026-05-01 10:02 | -34.19149 | -63.07103 | 31834 ft | 456 kts | 283° |
| 2026-05-01 10:03 | -34.17850 | -63.14609 | 31837 ft | 456 kts | 283° |
| 2026-05-01 10:03 | -34.16544 | -63.22117 | 31840 ft | 457 kts | 283° |
| 2026-05-01 10:04 | -34.15232 | -63.29634 | 31837 ft | 457 kts | 283° |
| 2026-05-01 10:04 | -34.13924 | -63.37089 | 31838 ft | 456 kts | 283° |
| 2026-05-01 10:05 | -34.12483 | -63.44540 | 31840 ft | 456 kts | 284° |
| 2026-05-01 10:05 | -34.10989 | -63.51978 | 31848 ft | 456 kts | 284° |
| 2026-05-01 10:06 | -34.09505 | -63.59432 | 31837 ft | 457 kts | 284° |
| 2026-05-01 10:06 | -34.08025 | -63.66897 | 31837 ft | 457 kts | 284° |
| 2026-05-01 10:07 | -34.06553 | -63.74307 | 31837 ft | 458 kts | 284° |
| 2026-05-01 10:07 | -34.05065 | -63.81775 | 31835 ft | 458 kts | 284° |
| 2026-05-01 10:08 | -34.02825 | -63.92984 | 31851 ft | 458 kts | 284° |
| 2026-05-01 10:09 | -34.01333 | -64.00459 | 31844 ft | 458 kts | 284° |
| 2026-05-01 10:09 | -33.99849 | -64.07875 | 31847 ft | 458 kts | 284° |
| 2026-05-01 10:10 | -33.98340 | -64.15383 | 31836 ft | 458 kts | 284° |
| 2026-05-01 10:10 | -33.96098 | -64.26506 | 31853 ft | 457 kts | 284° |
| 2026-05-01 10:11 | -33.94586 | -64.33966 | 31851 ft | 457 kts | 284° |
| 2026-05-01 10:11 | -33.93074 | -64.41408 | 31857 ft | 458 kts | 284° |
| 2026-05-01 10:12 | -33.91556 | -64.48857 | 31850 ft | 458 kts | 284° |
| 2026-05-01 10:13 | -33.89551 | -64.60067 | 31859 ft | 459 kts | 282° |
| 2026-05-01 10:13 | -33.88366 | -64.67621 | 31848 ft | 458 kts | 282° |
| 2026-05-01 10:14 | -33.86537 | -64.78932 | 31857 ft | 459 kts | 282° |
| 2026-05-01 10:14 | -33.85287 | -64.86467 | 31852 ft | 459 kts | 282° |
| 2026-05-01 10:15 | -33.84038 | -64.93943 | 31853 ft | 459 kts | 282° |
| 2026-05-01 10:15 | -33.82775 | -65.01481 | 31855 ft | 459 kts | 282° |
| 2026-05-01 10:16 | -33.81509 | -65.09022 | 31851 ft | 459 kts | 282° |
| 2026-05-01 10:17 | -33.79604 | -65.20318 | 31862 ft | 459 kts | 282° |
| 2026-05-01 10:17 | -33.77690 | -65.31581 | 31861 ft | 460 kts | 283° |
| 2026-05-01 10:18 | -33.75760 | -65.42872 | 31860 ft | 460 kts | 283° |
| 2026-05-01 10:19 | -33.74465 | -65.50409 | 31861 ft | 460 kts | 283° |
| 2026-05-01 10:19 | -33.73168 | -65.57944 | 31863 ft | 460 kts | 283° |
| 2026-05-01 10:20 | -33.71221 | -65.69192 | 31854 ft | 460 kts | 283° |
| 2026-05-01 10:20 | -33.69911 | -65.76722 | 31847 ft | 460 kts | 283° |
| 2026-05-01 10:21 | -33.67937 | -65.88023 | 31848 ft | 460 kts | 283° |
| 2026-05-01 10:22 | -33.65959 | -65.99269 | 31842 ft | 461 kts | 283° |
| 2026-05-01 10:23 | -33.63963 | -66.10565 | 31836 ft | 461 kts | 283° |
| 2026-05-01 10:23 | -33.61950 | -66.21874 | 31835 ft | 462 kts | 283° |
| 2026-05-01 10:24 | -33.59264 | -66.36902 | 31831 ft | 461 kts | 283° |
| 2026-05-01 10:25 | -33.56559 | -66.51909 | 31831 ft | 461 kts | 283° |
| 2026-05-01 10:26 | -33.55198 | -66.59421 | 31835 ft | 461 kts | 283° |
| 2026-05-01 10:27 | -33.52458 | -66.74459 | 31833 ft | 462 kts | 283° |
| 2026-05-01 10:28 | -33.50394 | -66.85719 | 31833 ft | 461 kts | 283° |
| 2026-05-01 10:28 | -33.48316 | -66.96991 | 31852 ft | 462 kts | 283° |
| 2026-05-01 10:29 | -33.46232 | -67.08231 | 31836 ft | 463 kts | 283° |
| 2026-05-01 10:30 | -33.43419 | -67.23324 | 31851 ft | 464 kts | 283° |
| 2026-05-01 10:31 | -33.40591 | -67.38369 | 31836 ft | 463 kts | 283° |
| 2026-05-01 10:32 | -33.38456 | -67.49664 | 31837 ft | 464 kts | 283° |
| 2026-05-01 10:33 | -33.35595 | -67.64717 | 31850 ft | 464 kts | 283° |
| 2026-05-01 10:34 | -33.33443 | -67.75973 | 31850 ft | 464 kts | 283° |
| 2026-05-01 10:34 | -33.31995 | -67.83507 | 31848 ft | 464 kts | 283° |
| 2026-05-01 10:35 | -33.29824 | -67.94785 | 31854 ft | 464 kts | 283° |
| 2026-05-01 10:35 | -33.28381 | -68.02262 | 31850 ft | 464 kts | 283° |
| 2026-05-01 10:36 | -33.26188 | -68.13561 | 31856 ft | 466 kts | 283° |
| 2026-05-01 10:37 | -33.24714 | -68.21119 | 31845 ft | 468 kts | 283° |
| 2026-05-01 10:37 | -33.22492 | -68.32481 | 31852 ft | 468 kts | 283° |
| 2026-05-01 10:38 | -33.21011 | -68.40013 | 31854 ft | 469 kts | 283° |
| 2026-05-01 10:38 | -33.19515 | -68.47601 | 31866 ft | 469 kts | 283° |
| 2026-05-01 10:39 | -33.18018 | -68.55176 | 31871 ft | 469 kts | 283° |
| 2026-05-01 10:39 | -33.16514 | -68.62745 | 31871 ft | 469 kts | 283° |
| 2026-05-01 10:40 | -33.14998 | -68.70323 | 31873 ft | 469 kts | 283° |
| 2026-05-01 10:40 | -33.13731 | -68.76635 | 31874 ft | 470 kts | 283° |
| 2026-05-01 10:41 | -33.12206 | -68.84224 | 31872 ft | 470 kts | 283° |
| 2026-05-01 10:42 | -33.09905 | -68.95626 | 31867 ft | 472 kts | 283° |
| 2026-05-01 10:42 | -33.08372 | -69.03187 | 31873 ft | 472 kts | 283° |
| 2026-05-01 10:43 | -33.06826 | -69.10790 | 31883 ft | 472 kts | 283° |
| 2026-05-01 10:43 | -33.05272 | -69.18403 | 31884 ft | 473 kts | 283° |
| 2026-05-01 10:44 | -33.03713 | -69.26016 | 31891 ft | 473 kts | 283° |
| 2026-05-01 10:44 | -33.02146 | -69.33645 | 31898 ft | 473 kts | 283° |
| 2026-05-01 10:45 | -33.00581 | -69.41245 | 31901 ft | 464 kts | 283° |
| 2026-05-01 10:45 | -32.99825 | -69.44897 | 31900 ft | 443 kts | 283° |
| 2026-05-01 10:45 | -32.99098 | -69.48401 | 31924 ft | 426 kts | 283° |
| 2026-05-01 10:46 | -32.97683 | -69.55229 | 31388 ft | 430 kts | 283° |
| 2026-05-01 10:46 | -32.96966 | -69.58682 | 30871 ft | 429 kts | 283° |
| 2026-05-01 10:46 | -32.96259 | -69.62078 | 30315 ft | 426 kts | 282° |
| 2026-05-01 10:46 | -32.95549 | -69.65483 | 29765 ft | 423 kts | 283° |
| 2026-05-01 10:47 | -32.94833 | -69.68917 | 29179 ft | 421 kts | 282° |
| 2026-05-01 10:47 | -32.94137 | -69.72248 | 28616 ft | 418 kts | 282° |
| 2026-05-01 10:47 | -32.93437 | -69.75596 | 28049 ft | 416 kts | 282° |
| 2026-05-01 10:47 | -32.92739 | -69.78927 | 27460 ft | 413 kts | 282° |
| 2026-05-01 10:48 | -32.92044 | -69.82236 | 26925 ft | 410 kts | 282° |
| 2026-05-01 10:48 | -32.91355 | -69.85514 | 26367 ft | 407 kts | 282° |
| 2026-05-01 10:48 | -32.90670 | -69.88765 | 25836 ft | 403 kts | 282° |
| 2026-05-01 10:48 | -32.89990 | -69.91991 | 25291 ft | 400 kts | 282° |
| 2026-05-01 10:49 | -32.89317 | -69.95182 | 24762 ft | 396 kts | 282° |
| 2026-05-01 10:49 | -32.88647 | -69.98346 | 24240 ft | 393 kts | 282° |
| 2026-05-01 10:49 | -32.88052 | -70.01494 | 23682 ft | 388 kts | 278° |
| 2026-05-01 10:49 | -32.87707 | -70.04662 | 23166 ft | 385 kts | 274° |
| 2026-05-01 10:50 | -32.87464 | -70.07836 | 22588 ft | 382 kts | 274° |
| 2026-05-01 10:50 | -32.87244 | -70.10881 | 22039 ft | 365 kts | 274° |
| 2026-05-01 10:50 | -32.87012 | -70.13829 | 21521 ft | 351 kts | 274° |
| 2026-05-01 10:50 | -32.86771 | -70.16715 | 21018 ft | 351 kts | 275° |
| 2026-05-01 10:51 | -32.86518 | -70.19602 | 20516 ft | 350 kts | 275° |
| 2026-05-01 10:51 | -32.86258 | -70.22479 | 20029 ft | 350 kts | 275° |
| 2026-05-01 10:51 | -32.85995 | -70.25358 | 19499 ft | 350 kts | 275° |
| 2026-05-01 10:51 | -32.85731 | -70.28230 | 18988 ft | 342 kts | 275° |
| 2026-05-01 10:52 | -32.85477 | -70.30986 | 18505 ft | 332 kts | 275° |
| 2026-05-01 10:52 | -32.85225 | -70.33708 | 18016 ft | 332 kts | 275° |
| 2026-05-01 10:52 | -32.84971 | -70.36455 | 17418 ft | 336 kts | 276° |
| 2026-05-01 10:52 | -32.84710 | -70.39226 | 16802 ft | 336 kts | 276° |
| 2026-05-01 10:53 | -32.84456 | -70.41930 | 16200 ft | 323 kts | 276° |
| 2026-05-01 10:53 | -32.84208 | -70.44591 | 15629 ft | 325 kts | 276° |
| 2026-05-01 10:53 | -32.83957 | -70.47274 | 15062 ft | 328 kts | 276° |
| 2026-05-01 10:53 | -32.83702 | -70.49986 | 14457 ft | 331 kts | 276° |
| 2026-05-01 10:54 | -32.83445 | -70.52716 | 13913 ft | 333 kts | 277° |
| 2026-05-01 10:54 | -32.83187 | -70.55436 | 13433 ft | 325 kts | 277° |
| 2026-05-01 10:54 | -32.82940 | -70.58042 | 12992 ft | 312 kts | 277° |
| 2026-05-01 10:54 | -32.82696 | -70.60612 | 12578 ft | 314 kts | 277° |
| 2026-05-01 10:55 | -32.82452 | -70.63165 | 12198 ft | 315 kts | 277° |
| 2026-05-01 10:55 | -32.82207 | -70.65740 | 11801 ft | 307 kts | 277° |
| 2026-05-01 10:55 | -32.82114 | -70.68222 | 11309 ft | 296 kts | 263° |
| 2026-05-01 10:55 | -32.82763 | -70.70495 | 10886 ft | 290 kts | 243° |
| 2026-05-01 10:56 | -32.83958 | -70.72444 | 10446 ft | 295 kts | 228° |
| 2026-05-01 10:56 | -32.85442 | -70.74112 | 9860 ft | 290 kts | 223° |
| 2026-05-01 10:56 | -32.86921 | -70.75670 | 9384 ft | 277 kts | 223° |
| 2026-05-01 10:56 | -32.88351 | -70.77205 | 8997 ft | 279 kts | 223° |
| 2026-05-01 10:57 | -32.89791 | -70.78772 | 8542 ft | 282 kts | 223° |
| 2026-05-01 10:57 | -32.91247 | -70.80345 | 8133 ft | 281 kts | 218° |
| 2026-05-01 10:57 | -32.92953 | -70.81291 | 7838 ft | 272 kts | 191° |
| 2026-05-01 10:57 | -32.94812 | -70.81577 | 7636 ft | 270 kts | 187° |
| 2026-05-01 10:58 | -32.96689 | -70.81848 | 7416 ft | 274 kts | 187° |
| 2026-05-01 10:58 | -32.98591 | -70.82127 | 7190 ft | 277 kts | 187° |
| 2026-05-01 10:58 | -33.00503 | -70.82401 | 6954 ft | 274 kts | 185° |
| 2026-05-01 10:58 | -33.02414 | -70.82417 | 6726 ft | 274 kts | 178° |
| 2026-05-01 10:59 | -33.04308 | -70.82284 | 6513 ft | 272 kts | 176° |
| 2026-05-01 10:59 | -33.06194 | -70.82135 | 6308 ft | 270 kts | 176° |
| 2026-05-01 10:59 | -33.08073 | -70.82002 | 6102 ft | 268 kts | 177° |
| 2026-05-01 10:59 | -33.09929 | -70.81880 | 5915 ft | 267 kts | 177° |
| 2026-05-01 11:00 | -33.11777 | -70.81766 | 5715 ft | 264 kts | 177° |
| 2026-05-01 11:00 | -33.13601 | -70.81658 | 5525 ft | 260 kts | 178° |
| 2026-05-01 11:00 | -33.15336 | -70.81557 | 5307 ft | 243 kts | 178° |
| 2026-05-01 11:00 | -33.16953 | -70.81465 | 5129 ft | 222 kts | 178° |
| 2026-05-01 11:01 | -33.18428 | -70.81377 | 4993 ft | 206 kts | 178° |
| 2026-05-01 11:01 | -33.19867 | -70.81297 | 4832 ft | 208 kts | 178° |
| 2026-05-01 11:01 | -33.21256 | -70.81222 | 4555 ft | 192 kts | 178° |
| 2026-05-01 11:01 | -33.22537 | -70.81155 | 4284 ft | 176 kts | 178° |
| 2026-05-01 11:02 | -33.23746 | -70.81091 | 4088 ft | 175 kts | 178° |
| 2026-05-01 11:02 | -33.24959 | -70.81028 | 3871 ft | 173 kts | 178° |
| 2026-05-01 11:02 | -33.26148 | -70.80963 | 3662 ft | 168 kts | 178° |
| 2026-05-01 11:02 | -33.27311 | -70.80900 | 3440 ft | 163 kts | 178° |
| 2026-05-01 11:03 | -33.28397 | -70.80843 | 3232 ft | 151 kts | 178° |
| 2026-05-01 11:03 | -33.29452 | -70.80787 | 3051 ft | 153 kts | 178° |
| 2026-05-01 11:03 | -33.30514 | -70.80729 | 2841 ft | 152 kts | 178° |
| 2026-05-01 11:03 | -33.31566 | -70.80669 | 2637 ft | 151 kts | 177° |
| 2026-05-01 11:04 | -33.32614 | -70.80617 | 2451 ft | 149 kts | 178° |
| 2026-05-01 11:04 | -33.33642 | -70.80560 | 2240 ft | 147 kts | 177° |
| 2026-05-01 11:04 | -33.34667 | -70.80507 | 2056 ft | 150 kts | 177° |
| 2026-05-01 11:04 | -33.35709 | -70.80446 | 1878 ft | 149 kts | 178° |
| 2026-05-01 11:05 | -33.36737 | -70.80413 | 1708 ft | 147 kts | 177° |
| 2026-05-01 11:05 | -33.37755 | -70.80354 | 1579 ft | 141 kts | 178° |
| 2026-05-01 11:05 | -33.38625 | -70.80302 | 1579 ft | 104 kts | 178° |
| 2026-05-01 11:05 | -33.39172 | -70.80266 | 1578 ft | 45 kts | 173° |
| 2026-05-01 11:06 | -33.39356 | -70.80181 | 1575 ft | 19 kts | 147° |
| 2026-05-01 11:06 | -33.39471 | -70.80092 | 1571 ft | 19 kts | 147° |
| 2026-05-01 11:06 | -33.39528 | -70.79963 | 1570 ft | 16 kts | 92° |
| 2026-05-01 11:07 | -33.39631 | -70.79877 | 1570 ft | 10 kts | 175° |
| 2026-05-01 11:07 | -33.39699 | -70.79870 | 1570 ft | 10 kts | 175° |
| 2026-05-01 11:07 | -33.39767 | -70.79866 | 1570 ft | 10 kts | 177° |
| 2026-05-01 11:07 | -33.39828 | -70.79830 | 1570 ft | 10 kts | 142° |
| 2026-05-01 11:08 | -33.39896 | -70.79804 | 1569 ft | 10 kts | 175° |
| 2026-05-01 11:08 | -33.39926 | -70.79802 | 1569 ft | 0 kts | 176° |